Time;durP1;ratioP1;P1;durP2;ratioP2;P2;SDS_P1;SDS_P2;PMS_P1;PMS_P2;Temp;Humidity;BMP_temperature;BMP_pressure;BME280_temperature;BME280_humidity;BME280_pressure;Samples;Min_cycle;Max_cycle;Signal;HPM_P1;HPM_P2
2021/05/30 00:00:32;;;;;;;41.60;22.05;;;;;;;8.13;100.00;98669.94;5031769;28;20481;-76
2021/05/30 00:02:59;;;;;;;46.65;22.52;;;;;;;8.13;100.00;98675.34;5033976;28;20049;-77
2021/05/30 00:05:28;;;;;;;49.10;22.48;;;;;;;8.08;100.00;98677.25;5032902;28;20049;-76
2021/05/30 00:07:55;;;;;;;53.50;23.48;;;;;;;8.05;100.00;98672.41;5031796;28;20041;-75
2021/05/30 00:10:22;;;;;;;45.55;24.23;;;;;;;8.02;100.00;98678.34;5032789;28;20588;-76
2021/05/30 00:12:49;;;;;;;51.67;25.08;;;;;;;8.00;100.00;98664.34;5032835;28;20132;-76
2021/05/30 00:15:16;;;;;;;48.60;23.95;;;;;;;8.03;100.00;98672.66;5013619;28;20401;-75
2021/05/30 00:17:43;;;;;;;55.55;26.30;;;;;;;8.03;100.00;98677.25;5013803;28;20072;-76
2021/05/30 00:20:11;;;;;;;54.60;26.90;;;;;;;8.01;100.00;98684.81;5031243;28;20112;-75
2021/05/30 00:22:38;;;;;;;53.50;25.30;;;;;;;8.03;100.00;98682.63;5031369;28;20049;-75
2021/05/30 00:25:07;;;;;;;53.03;25.08;;;;;;;8.01;100.00;98687.50;5030756;28;20041;-75
2021/05/30 00:27:36;;;;;;;50.42;25.00;;;;;;;7.95;100.00;98684.00;5013536;28;20046;-75
2021/05/30 00:30:08;;;;;;;56.63;25.17;;;;;;;7.90;100.00;98683.19;5031161;28;20505;-75
2021/05/30 00:32:35;;;;;;;55.28;25.52;;;;;;;7.85;100.00;98683.19;5030683;28;20045;-76
2021/05/30 00:35:02;;;;;;;53.22;25.45;;;;;;;7.79;100.00;98681.63;5013521;28;20084;-75
2021/05/30 00:37:29;;;;;;;49.92;25.20;;;;;;;7.72;100.00;98676.47;5013855;28;20091;-75
2021/05/30 00:39:55;;;;;;;56.53;26.42;;;;;;;7.69;100.00;98676.22;5013272;28;20045;-75
2021/05/30 00:42:22;;;;;;;58.88;27.13;;;;;;;7.65;100.00;98680.53;5013885;28;20045;-75
2021/05/30 00:44:49;;;;;;;60.35;27.35;;;;;;;7.64;100.00;98677.03;5030383;28;20056;-75
2021/05/30 00:47:16;;;;;;;65.13;27.05;;;;;;;7.57;100.00;98676.50;5031076;28;20367;-75
2021/05/30 00:49:42;;;;;;;66.40;29.05;;;;;;;7.61;100.00;98679.47;5031078;28;20069;-76
2021/05/30 00:52:09;;;;;;;63.75;28.33;;;;;;;7.62;100.00;98675.66;5031073;28;20620;-74
2021/05/30 00:54:38;;;;;;;67.10;28.10;;;;;;;7.59;100.00;98681.63;5030276;28;20124;-74
2021/05/30 00:57:09;;;;;;;67.13;28.92;;;;;;;7.53;100.00;98681.63;5013189;28;20049;-76
2021/05/30 00:59:36;;;;;;;66.22;29.02;;;;;;;7.54;100.00;98677.03;5029695;28;20107;-76
2021/05/30 01:02:03;;;;;;;66.20;30.63;;;;;;;7.51;100.00;98677.56;5030420;28;20474;-76
2021/05/30 01:04:30;;;;;;;66.93;29.05;;;;;;;7.45;100.00;98678.66;5012712;28;20493;-77
2021/05/30 01:06:58;;;;;;;74.63;31.67;;;;;;;7.52;100.00;98687.28;5030989;28;20099;-76
2021/05/30 01:09:28;;;;;;;69.13;30.45;;;;;;;7.51;100.00;98696.41;5030694;28;20060;-76
2021/05/30 01:11:55;;;;;;;74.07;32.40;;;;;;;7.53;100.00;98696.97;5013298;28;20053;-76
2021/05/30 01:14:22;;;;;;;74.95;31.88;;;;;;;7.50;100.00;98700.22;5029648;28;20045;-76
2021/05/30 01:16:49;;;;;;;73.50;31.23;;;;;;;7.50;100.00;98692.94;5030314;28;20045;-76
2021/05/30 01:19:17;;;;;;;81.80;33.45;;;;;;;7.49;100.00;98694.00;5012918;28;20120;-76
2021/05/30 01:21:45;;;;;;;93.18;36.83;;;;;;;7.47;100.00;98698.03;5030544;28;20124;-76
2021/05/30 01:24:13;;;;;;;79.20;34.33;;;;;;;7.40;100.00;98684.03;5012500;28;20042;-75
2021/05/30 01:26:40;;;;;;;85.65;35.83;;;;;;;7.34;100.00;98691.31;5030032;28;20046;-75
2021/05/30 01:29:07;;;;;;;88.03;36.80;;;;;;;7.30;100.00;98687.50;5030404;28;20448;-76
2021/05/30 01:31:34;;;;;;;89.18;36.72;;;;;;;7.31;100.00;98699.91;5030287;28;20045;-76
2021/05/30 01:34:00;;;;;;;80.32;35.63;;;;;;;7.30;100.00;98692.13;5030029;28;20048;-76
2021/05/30 01:36:27;;;;;;;93.28;38.22;;;;;;;7.30;100.00;98687.50;5029999;28;20048;-76
2021/05/30 01:38:54;;;;;;;90.03;36.30;;;;;;;7.20;100.00;98687.50;5012661;28;20507;-76
2021/05/30 01:41:20;;;;;;;90.63;36.47;;;;;;;7.20;100.00;98695.59;5029719;28;20048;-76
2021/05/30 01:43:47;;;;;;;96.60;36.90;;;;;;;7.23;100.00;98700.44;5029660;28;20104;-76
2021/05/30 01:46:14;;;;;;;93.63;37.75;;;;;;;7.19;100.00;98701.25;5012141;28;20440;-76
2021/05/30 01:48:40;;;;;;;83.82;34.97;;;;;;;7.19;100.00;98703.94;5030322;28;20041;-76
2021/05/30 01:51:07;;;;;;;93.55;36.17;;;;;;;7.21;100.00;98705.28;5030007;28;20120;-76
2021/05/30 01:53:51;;;;;;;93.32;36.47;;;;;;;7.18;100.00;98703.13;5029800;28;20328;-76
2021/05/30 01:59:04;;;;;;;81.80;33.73;;;;;;;7.04;100.00;98703.91;5029978;28;20045;-75
2021/05/30 02:01:32;;;;;;;84.93;33.70;;;;;;;6.94;100.00;98693.94;5012348;28;20045;-75
2021/05/30 02:04:02;;;;;;;89.40;34.88;;;;;;;6.98;100.00;98699.56;5030236;28;20041;-75
2021/05/30 02:06:30;;;;;;;93.05;35.20;;;;;;;6.97;100.00;98700.66;5011934;28;20393;-75
2021/05/30 02:08:58;;;;;;;97.25;35.08;;;;;;;6.97;100.00;98701.44;5011996;28;20228;-75
2021/05/30 02:11:28;;;;;;;95.18;35.08;;;;;;;6.93;100.00;98711.16;5028503;28;20045;-76
2021/05/30 02:14:00;;;;;;;88.18;34.47;;;;;;;6.87;100.00;98701.44;5029319;28;20041;-75
2021/05/30 02:16:30;;;;;;;89.22;33.53;;;;;;;6.75;100.00;98692.78;5011897;28;20046;-75
2021/05/30 02:18:57;;;;;;;87.45;34.00;;;;;;;6.73;100.00;98692.25;5011207;28;20107;-76
2021/05/30 02:21:27;;;;;;;90.90;35.75;;;;;;;6.79;100.00;98701.94;5012220;28;20045;-76
2021/05/30 02:23:53;;;;;;;96.13;35.53;;;;;;;6.79;100.00;98705.44;5029346;28;20559;-76
2021/05/30 02:26:20;;;;;;;81.00;34.08;;;;;;;6.79;100.00;98705.44;5029624;28;20037;-77
2021/05/30 02:28:49;;;;;;;95.25;36.88;;;;;;;6.72;100.00;98701.38;5029255;28;20041;-76
2021/05/30 02:31:15;;;;;;;89.60;33.25;;;;;;;6.69;100.00;98700.03;5029250;28;20080;-76
2021/05/30 02:33:42;;;;;;;97.45;34.92;;;;;;;6.63;100.00;98713.72;5029803;28;20045;-76
2021/05/30 02:36:08;;;;;;;99.90;34.47;;;;;;;6.60;100.00;98711.56;5012328;28;20382;-76
2021/05/30 02:38:35;;;;;;;96.95;33.40;;;;;;;6.45;100.00;98711.50;5011586;28;20504;-75
2021/05/30 02:41:02;;;;;;;81.55;32.05;;;;;;;6.40;100.00;98706.09;5011935;28;20045;-76
2021/05/30 02:43:28;;;;;;;96.03;34.42;;;;;;;6.44;100.00;98713.38;5011625;28;20041;-76
2021/05/30 02:45:55;;;;;;;104.13;32.50;;;;;;;6.33;100.00;98716.25;5010808;28;20045;-76
2021/05/30 02:48:21;;;;;;;104.85;35.35;;;;;;;6.32;100.00;98718.16;5011770;28;20080;-76
2021/05/30 02:50:58;;;;;;;90.95;33.58;;;;;;;6.36;100.00;98716.56;5011961;28;20046;-76
2021/05/30 02:53:32;;;;;;;110.45;36.05;;;;;;;6.30;100.00;98716.81;5029874;28;20042;-76
2021/05/30 02:56:00;;;;;;;106.97;36.45;;;;;;;6.24;100.00;98719.47;5011739;28;20448;-76
2021/05/30 02:58:29;;;;;;;100.18;33.85;;;;;;;6.24;100.00;98722.16;5027879;28;20324;-76
2021/05/30 03:00:56;;;;;;;134.20;38.83;;;;;;;6.23;100.00;98719.72;5016868;23;20053;-85
2021/05/30 03:03:23;;;;;;;101.00;35.03;;;;;;;6.18;100.00;98723.19;4996804;28;20050;-84
2021/05/30 03:05:50;;;;;;;101.18;34.75;;;;;;;6.12;100.00;98726.06;5032445;28;20490;-84
2021/05/30 03:08:17;;;;;;;111.93;37.10;;;;;;;6.19;100.00;98722.09;4999986;28;20049;-83
2021/05/30 03:10:43;;;;;;;241.35;40.40;;;;;;;6.21;100.00;98719.97;5005741;28;20052;-83
2021/05/30 03:13:10;;;;;;;188.70;41.55;;;;;;;6.34;100.00;98724.06;5021106;28;20124;-83
2021/05/30 03:15:38;;;;;;;162.07;42.42;;;;;;;6.41;100.00;98735.41;5020552;28;20136;-85
2021/05/30 03:18:09;;;;;;;313.67;44.95;;;;;;;6.49;100.00;98742.16;5020936;28;20505;-84
2021/05/30 03:20:35;;;;;;;435.83;46.83;;;;;;;6.52;100.00;98737.09;5037484;28;20069;-83
2021/05/30 03:23:03;;;;;;;272.17;44.85;;;;;;;6.59;100.00;98729.59;5040653;28;20072;-84
2021/05/30 03:25:30;;;;;;;453.05;48.53;;;;;;;6.65;100.00;98741.19;5024612;28;20081;-84
2021/05/30 03:27:57;;;;;;;457.42;48.67;;;;;;;6.76;100.00;98732.88;5023899;28;20040;-86
2021/05/30 03:30:24;;;;;;;564.70;50.13;;;;;;;6.75;100.00;98730.47;5041135;28;20069;-83
2021/05/30 03:32:51;;;;;;;307.33;44.25;;;;;;;6.74;100.00;98718.06;5024811;28;20041;-82
2021/05/30 03:35:19;;;;;;;491.92;46.10;;;;;;;6.85;100.00;98722.41;5024119;28;20059;-85
2021/05/30 03:41:53;;;;;;;423.75;45.90;;;;;;;6.91;100.00;98718.69;5012880;28;20045;-85
2021/05/30 03:44:20;;;;;;;281.60;42.85;;;;;;;6.93;100.00;98737.25;5039566;28;20076;-84
2021/05/30 03:46:48;;;;;;;228.05;40.90;;;;;;;6.98;100.00;98731.88;5042008;28;20048;-84
2021/05/30 03:49:15;;;;;;;232.32;43.33;;;;;;;6.97;100.00;98724.91;5041315;28;20519;-82
2021/05/30 03:51:41;;;;;;;511.23;47.30;;;;;;;7.11;100.00;98734.06;5041708;28;20049;-85
2021/05/30 03:54:08;;;;;;;344.73;43.03;;;;;;;7.16;100.00;98726.00;5025399;28;20114;-83
2021/05/30 03:56:36;;;;;;;388.20;43.08;;;;;;;7.17;100.00;98735.72;5025078;28;20136;-84
2021/05/30 03:59:03;;;;;;;319.85;41.47;;;;;;;7.23;100.00;98735.44;5026116;28;20044;-83
2021/05/30 04:01:30;;;;;;;296.75;40.70;;;;;;;7.27;100.00;98736.56;5024879;28;20140;-83
2021/05/30 04:03:57;;;;;;;265.98;39.78;;;;;;;7.32;100.00;98744.63;5024061;28;20061;-83
2021/05/30 04:06:23;;;;;;;335.27;40.47;;;;;;;7.28;100.00;98740.84;5024065;28;20064;-84
2021/05/30 04:08:50;;;;;;;394.73;39.90;;;;;;;7.21;100.00;98734.09;5039875;28;20512;-85
2021/05/30 04:11:18;;;;;;;231.15;36.72;;;;;;;7.23;100.00;98748.91;5023661;28;20056;-82
2021/05/30 04:13:46;;;;;;;251.88;37.53;;;;;;;7.23;100.00;98742.72;5038434;28;20130;-84
2021/05/30 04:16:13;;;;;;;154.65;34.22;;;;;;;7.30;100.00;98738.69;5023167;28;20045;-82
2021/05/30 04:18:40;;;;;;;191.85;35.85;;;;;;;7.42;100.00;98741.97;5022470;28;20052;-82
2021/05/30 04:21:06;;;;;;;158.85;33.13;;;;;;;7.37;100.00;98736.56;5024534;28;20086;-83
2021/05/30 04:23:33;;;;;;;149.15;35.30;;;;;;;7.42;100.00;98744.66;5024488;28;20481;-81
2021/05/30 04:26:00;;;;;;;159.27;33.45;;;;;;;7.47;100.00;98739.28;5024651;28;20148;-84
2021/05/30 04:28:26;;;;;;;155.90;33.17;;;;;;;7.43;100.00;98738.19;5023720;28;20040;-82
2021/05/30 04:30:54;;;;;;;130.90;32.38;;;;;;;7.41;100.00;98743.03;5023634;28;20136;-83
2021/05/30 04:33:21;;;;;;;130.23;33.65;;;;;;;7.39;100.00;98731.72;5037913;28;20045;-83
2021/05/30 04:35:48;;;;;;;117.38;34.92;;;;;;;7.42;100.00;98735.75;5021823;28;20049;-82
2021/05/30 04:38:18;;;;;;;178.50;35.22;;;;;;;7.40;100.00;98733.34;5022017;28;20479;-82
2021/05/30 04:40:46;;;;;;;149.38;34.20;;;;;;;7.42;100.00;98730.38;5023752;28;20045;-83
2021/05/30 04:43:13;;;;;;;102.70;34.55;;;;;;;7.58;100.00;98731.19;5023682;28;20080;-82
2021/05/30 04:45:44;;;;;;;198.68;37.38;;;;;;;7.62;100.00;98735.78;5024367;28;20413;-83
2021/05/30 04:48:11;;;;;;;116.45;34.90;;;;;;;7.70;100.00;98729.84;5024049;28;20110;-83
2021/05/30 04:50:38;;;;;;;113.63;33.85;;;;;;;7.79;100.00;98732.84;5039378;28;20505;-82
2021/05/30 04:53:06;;;;;;;106.35;33.70;;;;;;;7.73;100.00;98733.91;5023632;28;20126;-83
2021/05/30 04:55:33;;;;;;;109.20;33.42;;;;;;;7.67;100.00;98721.50;5021809;28;20059;-82
2021/05/30 04:58:00;;;;;;;104.10;33.97;;;;;;;7.72;100.00;98727.69;5039417;28;20051;-83
2021/05/30 05:00:27;;;;;;;114.22;35.47;;;;;;;7.70;100.00;98729.03;5050637;28;20045;-82
2021/05/30 05:02:53;;;;;;;121.60;34.80;;;;;;;7.86;100.00;98746.84;5036397;28;20041;-82
2021/05/30 05:05:25;;;;;;;119.00;35.05;;;;;;;7.92;100.00;98734.97;5036406;28;20045;-83
2021/05/30 05:07:52;;;;;;;104.35;34.20;;;;;;;7.87;100.00;98737.69;5052155;28;20042;-82
2021/05/30 05:10:21;;;;;;;94.72;32.45;;;;;;;7.93;100.00;98741.97;5054584;28;20040;-83
2021/05/30 05:12:48;;;;;;;89.22;33.28;;;;;;;8.06;100.00;98739.53;5033244;28;20083;-83
2021/05/30 05:15:15;;;;;;;80.97;31.08;;;;;;;7.95;100.00;98735.22;5020274;28;20068;-84
2021/05/30 05:17:41;;;;;;;84.32;32.33;;;;;;;7.98;100.00;98741.97;5023060;28;20509;-84
2021/05/30 05:20:09;;;;;;;74.32;29.55;;;;;;;8.08;100.00;98732.00;5021732;28;20307;-83
2021/05/30 05:22:36;;;;;;;71.63;30.17;;;;;;;7.92;100.00;98735.78;5021643;28;20041;-84
2021/05/30 05:25:08;;;;;;;69.05;28.52;;;;;;;8.02;100.00;98730.41;5039266;28;20053;-83
2021/05/30 05:27:34;;;;;;;65.88;29.05;;;;;;;8.06;100.00;98725.25;5039380;28;20119;-82
2021/05/30 05:30:01;;;;;;;62.75;28.67;;;;;;;8.16;100.00;98734.13;5021219;28;20053;-84
2021/05/30 05:32:29;;;;;;;66.28;27.63;;;;;;;8.09;100.00;98733.63;5037849;28;20509;-81
2021/05/30 05:34:56;;;;;;;60.20;27.25;;;;;;;8.25;100.00;98733.59;5000329;28;20045;-85
2021/05/30 05:37:23;;;;;;;68.85;27.90;;;;;;;8.28;100.00;98733.91;5038856;28;20045;-84
2021/05/30 05:39:49;;;;;;;67.85;29.02;;;;;;;8.39;100.00;98735.47;5039079;28;20137;-83
2021/05/30 05:42:16;;;;;;;60.53;26.80;;;;;;;8.39;100.00;98737.38;5021727;28;20132;-84
2021/05/30 05:44:43;;;;;;;54.30;25.80;;;;;;;8.55;100.00;98728.94;5019704;28;20053;-81
2021/05/30 05:47:09;;;;;;;54.80;25.75;;;;;;;8.68;100.00;98724.88;5019027;28;20042;-83
2021/05/30 05:49:36;;;;;;;45.50;22.08;;;;;;;8.75;100.00;98736.16;5030295;28;20143;-84
2021/05/30 05:52:04;;;;;;;44.75;22.15;;;;;;;8.88;100.00;98722.06;5008650;28;20144;-85
2021/05/30 05:54:51;;;;;;;46.85;24.10;;;;;;;9.15;100.00;98716.28;5024137;28;20075;-84
2021/05/30 05:57:18;;;;;;;46.85;22.40;;;;;;;9.35;100.00;98732.34;5023012;28;20080;-85
2021/05/30 05:59:45;;;;;;;38.90;20.45;;;;;;;9.36;100.00;98723.19;5022189;28;20044;-84
2021/05/30 06:02:12;;;;;;;35.67;18.58;;;;;;;9.60;100.00;98721.38;5024147;28;20048;-85
2021/05/30 06:04:42;;;;;;;33.60;17.67;;;;;;;9.59;100.00;98722.47;5040390;28;20582;-86
2021/05/30 06:07:09;;;;;;;33.22;18.20;;;;;;;9.65;100.00;98715.13;5023316;28;20045;-83
2021/05/30 06:09:36;;;;;;;29.65;16.77;;;;;;;9.65;100.00;98723.25;5024239;28;20072;-83
2021/05/30 06:12:03;;;;;;;27.40;15.23;;;;;;;9.83;100.00;98725.28;5024549;28;20078;-84
2021/05/30 06:14:30;;;;;;;27.88;15.25;;;;;;;9.92;100.00;98723.56;5022549;28;20713;-84
2021/05/30 06:16:57;;;;;;;24.95;14.57;;;;;;;10.01;100.00;98725.34;5039081;28;20268;-84
2021/05/30 06:19:25;;;;;;;24.65;14.15;;;;;;;10.04;100.00;98723.97;5021297;28;20056;-86
2021/05/30 06:22:00;;;;;;;24.40;14.20;;;;;;;9.93;100.00;98714.38;5022593;28;20041;-85
2021/05/30 06:24:26;;;;;;;27.98;14.20;;;;;;;9.93;100.00;98715.19;5021889;28;20052;-84
2021/05/30 06:26:57;;;;;;;29.48;14.10;;;;;;;9.94;100.00;98713.25;5020238;28;20079;-84
2021/05/30 06:29:24;;;;;;;23.95;12.43;;;;;;;9.99;100.00;98719.44;5036577;28;20044;-86
2021/05/30 06:31:51;;;;;;;21.35;11.20;;;;;;;10.11;100.00;98718.25;5038544;28;20055;-85
2021/05/30 06:34:23;;;;;;;16.83;9.60;;;;;;;9.90;100.00;98704.09;5023034;28;20057;-86
2021/05/30 06:36:52;;;;;;;15.45;9.32;;;;;;;10.09;100.00;98712.31;5020700;28;20499;-83
2021/05/30 06:39:19;;;;;;;25.15;12.00;;;;;;;10.22;100.00;98711.69;5056008;28;20102;-83
2021/05/30 06:41:46;;;;;;;22.95;13.80;;;;;;;10.35;100.00;98711.81;5043920;28;20056;-87
2021/05/30 06:44:15;;;;;;;17.05;9.80;;;;;;;10.37;100.00;98717.75;5054930;28;20049;-87
2021/05/30 06:46:42;;;;;;;21.55;10.35;;;;;;;10.39;100.00;98703.91;5058316;28;20780;-83
2021/05/30 06:49:08;;;;;;;18.08;10.15;;;;;;;10.49;100.00;98706.50;5068562;28;20386;-84
2021/05/30 06:51:40;;;;;;;23.05;10.85;;;;;;;10.39;100.00;98712.03;5063237;28;20045;-83
2021/05/30 06:54:08;;;;;;;17.80;10.13;;;;;;;10.52;100.00;98711.34;5030424;28;20082;-84
2021/05/30 06:56:36;;;;;;;14.93;9.10;;;;;;;10.58;100.00;98712.94;5027917;28;20566;-83
2021/05/30 06:59:03;;;;;;;17.52;9.77;;;;;;;10.59;100.00;98709.09;5027013;28;20054;-83
2021/05/30 07:01:30;;;;;;;18.15;9.85;;;;;;;10.52;100.00;98708.66;5034061;28;20044;-84
2021/05/30 07:03:59;;;;;;;17.25;9.65;;;;;;;10.62;100.00;98716.66;5035183;28;20360;-85
2021/05/30 07:06:26;;;;;;;17.85;9.13;;;;;;;10.74;100.00;98722.47;5034274;28;20052;-84
2021/05/30 07:08:52;;;;;;;15.93;9.38;;;;;;;10.73;100.00;98726.28;5028782;28;20106;-84
2021/05/30 07:11:19;;;;;;;18.20;9.20;;;;;;;10.85;100.00;98723.16;5031861;28;20055;-83
2021/05/30 07:13:46;;;;;;;17.50;8.85;;;;;;;10.96;100.00;98714.63;5035566;28;20486;-84
2021/05/30 07:16:13;;;;;;;15.00;9.10;;;;;;;11.04;100.00;98715.88;5054712;28;20032;-84
2021/05/30 07:18:41;;;;;;;17.33;9.27;;;;;;;10.92;100.00;98716.28;5060297;28;20480;-83
2021/05/30 07:21:07;;;;;;;18.45;9.45;;;;;;;11.24;100.00;98704.75;5063881;28;20037;-82
2021/05/30 07:23:36;;;;;;;17.38;9.23;;;;;;;11.71;100.00;98706.53;5026394;28;20124;-82
2021/05/30 07:26:04;;;;;;;12.00;6.35;;;;;;;11.58;100.00;98704.53;5025042;28;20171;-83
2021/05/30 07:28:31;;;;;;;13.23;6.43;;;;;;;11.56;100.00;98701.31;5033027;28;20050;-82
2021/05/30 07:30:59;;;;;;;9.15;5.88;;;;;;;11.78;100.00;98720.50;5057594;28;20097;-85
2021/05/30 07:33:26;;;;;;;11.77;6.28;;;;;;;11.70;100.00;98704.91;5044344;28;20257;-84
2021/05/30 07:35:53;;;;;;;12.40;7.70;;;;;;;11.72;100.00;98719.78;5048032;28;20041;-85
2021/05/30 07:38:20;;;;;;;17.23;7.65;;;;;;;11.74;100.00;98722.22;5031723;28;20380;-80
2021/05/30 07:40:47;;;;;;;16.13;7.22;;;;;;;12.32;100.00;98723.38;5044493;28;20685;-81
2021/05/30 07:43:17;;;;;;;14.10;7.28;;;;;;;12.45;100.00;98722.59;5042108;28;20171;-82
2021/05/30 07:45:43;;;;;;;16.25;7.25;;;;;;;12.83;100.00;98725.09;5025032;28;20615;-81
2021/05/30 07:48:10;;;;;;;14.27;6.90;;;;;;;12.29;100.00;98723.97;5023425;28;20041;-80
2021/05/30 07:50:37;;;;;;;11.23;5.88;;;;;;;12.00;100.00;98734.22;5025013;28;20820;-82
2021/05/30 07:53:04;;;;;;;12.88;5.97;;;;;;;12.01;100.00;98741.28;5028069;28;20055;-83
2021/05/30 07:55:31;;;;;;;11.57;6.00;;;;;;;12.24;100.00;98725.94;5044981;28;20457;-83
2021/05/30 07:57:58;;;;;;;12.45;6.95;;;;;;;12.20;100.00;98731.19;5033314;28;20055;-83
2021/05/30 08:00:25;;;;;;;11.35;5.82;;;;;;;12.61;100.00;98725.81;5030784;28;20041;-86
2021/05/30 08:02:52;;;;;;;10.00;5.20;;;;;;;12.68;100.00;98728.94;5029431;28;20543;-83
2021/05/30 08:05:20;;;;;;;11.48;4.70;;;;;;;12.79;100.00;98727.63;5041630;28;20139;-83
2021/05/30 08:07:49;;;;;;;8.88;4.25;;;;;;;12.74;100.00;98724.22;5028895;28;20061;-81
2021/05/30 08:10:17;;;;;;;6.63;4.47;;;;;;;13.06;100.00;98729.50;5021060;28;20053;-83
2021/05/30 08:12:44;;;;;;;9.82;4.63;;;;;;;12.72;100.00;98718.28;5010195;23;20063;-81
2021/05/30 08:15:12;;;;;;;10.52;5.05;;;;;;;12.98;100.00;98708.50;4976898;28;20057;-80
2021/05/30 08:17:44;;;;;;;9.77;4.95;;;;;;;13.26;100.00;98718.25;5000478;28;20026;-80
2021/05/30 08:20:16;;;;;;;7.82;2.63;;;;;;;13.50;100.00;98717.97;4999088;28;20173;-79
2021/05/30 08:22:43;;;;;;;12.90;2.95;;;;;;;13.62;100.00;98710.09;4964124;28;20158;-78
2021/05/30 08:25:10;;;;;;;7.00;2.90;;;;;;;13.67;100.00;98708.03;4994164;28;20050;-79
2021/05/30 08:27:38;;;;;;;6.82;2.50;;;;;;;13.34;100.00;98711.28;4995643;28;20113;-79
2021/05/30 08:30:10;;;;;;;7.63;3.08;;;;;;;13.47;100.00;98707.72;4977487;28;20053;-78
2021/05/30 08:32:37;;;;;;;8.07;2.70;;;;;;;13.21;100.00;98706.69;4979925;28;20046;-78
2021/05/30 08:35:06;;;;;;;8.45;2.67;;;;;;;13.21;100.00;98729.25;4979169;28;20069;-81
2021/05/30 08:37:34;;;;;;;8.93;3.00;;;;;;;13.50;100.00;98715.25;4976718;28;20089;-79
2021/05/30 08:40:04;;;;;;;8.35;2.38;;;;;;;13.38;100.00;98714.97;4988958;28;20390;-80
2021/05/30 08:42:33;;;;;;;6.70;2.72;;;;;;;13.50;100.00;98726.94;4983219;28;20050;-80
2021/05/30 08:45:01;;;;;;;7.65;2.47;;;;;;;13.96;100.00;98718.47;4960700;28;20062;-80
2021/05/30 08:47:28;;;;;;;8.10;2.20;;;;;;;13.52;99.92;98724.69;4977841;28;20120;-80
2021/05/30 08:49:55;;;;;;;7.30;2.47;;;;;;;13.95;100.00;98725.06;5008178;28;20080;-81
2021/05/30 08:52:22;;;;;;;6.63;2.30;;;;;;;13.98;81.97;98731.81;5014296;28;20042;-80
2021/05/30 08:54:50;;;;;;;5.30;2.38;;;;;;;13.99;80.01;98731.47;4994766;28;20101;-79
2021/05/30 08:57:18;;;;;;;6.20;2.08;;;;;;;13.97;74.35;98719.28;4993076;28;20077;-79
2021/05/30 08:59:54;;;;;;;9.68;2.60;;;;;;;14.28;81.06;98720.13;5008467;28;20042;-80
2021/05/30 09:02:21;;;;;;;4.63;2.17;;;;;;;14.32;77.89;98723.88;4993394;28;20046;-78
2021/05/30 09:05:04;;;;;;;3.67;2.03;;;;;;;14.18;63.25;98725.84;4989575;28;20123;-80
2021/05/30 09:07:47;;;;;;;7.38;1.83;;;;;;;14.25;55.00;98721.56;4991618;28;20074;-81
2021/05/30 09:10:32;;;;;;;3.67;1.95;;;;;;;14.53;60.83;98732.31;4967305;28;20046;-84
2021/05/30 09:13:16;;;;;;;5.43;2.28;;;;;;;14.35;57.05;98734.94;4970933;28;20182;-78
2021/05/30 09:18:22;;;;;;;2.20;1.40;;;;;;;14.62;53.92;98724.97;4990124;28;20046;-79
2021/05/30 09:20:57;;;;;;;3.95;1.77;;;;;;;14.75;53.37;98730.31;4953371;28;20050;-81
2021/05/30 09:23:37;;;;;;;4.05;2.00;;;;;;;14.76;53.62;98725.69;4971455;28;20488;-79
2021/05/30 09:26:17;;;;;;;5.57;2.10;;;;;;;15.13;57.60;98725.13;4972084;28;20057;-78
2021/05/30 09:29:08;;;;;;;7.28;2.40;;;;;;;15.37;62.16;98725.50;4970955;28;20046;-73
2021/05/30 09:32:02;;;;;;;8.43;2.10;;;;;;;15.43;57.54;98718.75;4986330;28;20474;-73
2021/05/30 09:34:31;;;;;;;6.15;2.05;;;;;;;15.84;55.41;98718.34;4985108;28;20670;-74
2021/05/30 09:36:59;;;;;;;4.65;1.90;;;;;;;16.27;52.05;98731.09;4988461;28;20124;-78
2021/05/30 09:39:42;;;;;;;6.97;2.13;;;;;;;17.15;53.09;98721.13;4969041;28;20045;-73
2021/05/30 09:42:25;;;;;;;6.28;2.08;;;;;;;17.47;49.07;98722.38;4978388;28;20541;-80
2021/05/30 09:45:09;;;;;;;6.28;2.20;;;;;;;18.29;46.93;98707.81;4971873;28;20110;-79
2021/05/30 09:47:46;;;;;;;2.15;1.50;;;;;;;18.78;43.00;98711.47;5008645;28;20045;-81
2021/05/30 09:50:18;;;;;;;4.03;1.77;;;;;;;19.57;40.34;98703.41;5013410;28;20073;-81
2021/05/30 09:52:52;;;;;;;3.45;1.63;;;;;;;18.77;40.57;98718.06;5007524;28;20530;-79
2021/05/30 09:55:29;;;;;;;2.88;1.55;;;;;;;19.49;38.91;98717.25;4990537;28;20056;-77
2021/05/30 09:58:19;;;;;;;4.68;1.45;;;;;;;19.35;41.76;98725.84;4989091;28;20046;-73
2021/05/30 10:00:59;;;;;;;4.35;1.60;;;;;;;19.67;39.68;98705.66;4983733;28;20465;-75
2021/05/30 10:03:27;;;;;;;4.00;1.48;;;;;;;20.25;38.68;98715.19;4985468;28;20045;-71
2021/05/30 10:05:54;;;;;;;3.92;1.75;;;;;;;21.18;38.62;98715.59;4985843;28;20050;-71
2021/05/30 10:08:22;;;;;;;5.72;1.70;;;;;;;20.21;38.54;98707.94;4987079;28;20050;-77
2021/05/30 10:10:49;;;;;;;4.75;1.80;;;;;;;21.39;38.24;98719.63;4960927;28;20066;-79
2021/05/30 10:13:16;;;;;;;3.78;1.42;;;;;;;21.16;35.34;98718.72;4985807;28;20050;-73
2021/05/30 10:15:43;;;;;;;2.42;1.52;;;;;;;20.76;36.37;98707.06;4987123;28;20145;-78
2021/05/30 10:18:31;;;;;;;3.17;1.60;;;;;;;21.70;35.49;98725.03;4989829;28;20042;-79
2021/05/30 10:20:59;;;;;;;3.45;1.55;;;;;;;20.25;35.63;98717.94;4972561;28;20042;-77
2021/05/30 10:23:27;;;;;;;5.60;1.80;;;;;;;21.98;34.81;98713.84;4992037;28;20057;-78
2021/05/30 10:26:20;;;;;;;5.00;1.80;;;;;;;22.53;34.99;98711.72;4974397;28;20054;-77
2021/05/30 10:28:54;;;;;;;6.60;1.52;;;;;;;20.78;34.26;98707.50;4974774;28;20093;-78
2021/05/30 10:31:35;;;;;;;4.30;1.25;;;;;;;20.80;34.48;98711.50;4990340;28;20493;-78
2021/05/30 10:34:11;;;;;;;4.53;1.30;;;;;;;21.75;36.16;98715.69;4968221;28;20472;-78
2021/05/30 10:36:40;;;;;;;4.63;1.50;;;;;;;22.35;34.33;98709.44;4972649;28;20046;-77
2021/05/30 10:39:31;;;;;;;2.45;1.40;;;;;;;22.61;32.82;98708.72;4991287;28;20101;-79
2021/05/30 10:42:25;;;;;;;7.53;1.55;;;;;;;22.68;33.65;98708.88;4992678;28;20066;-77
2021/05/30 10:45:01;;;;;;;4.43;1.63;;;;;;;23.58;32.15;98707.16;4989850;28;20116;-78
2021/05/30 10:48:03;;;;;;;4.82;1.50;;;;;;;22.41;31.92;98703.59;4994179;28;20054;-78
2021/05/30 10:51:01;;;;;;;2.90;1.33;;;;;;;24.00;32.45;98706.91;4962222;28;20055;-79
2021/05/30 10:53:48;;;;;;;3.22;1.55;;;;;;;24.43;33.61;98695.16;4969126;28;20114;-77
2021/05/30 10:56:37;;;;;;;4.45;1.70;;;;;;;23.68;31.19;98695.44;4974740;28;20043;-78
2021/05/30 10:59:04;;;;;;;5.43;1.52;;;;;;;24.17;33.02;98696.06;4975610;28;20050;-77
2021/05/30 11:01:34;;;;;;;5.30;1.30;;;;;;;22.73;32.95;98693.97;4994089;28;20046;-77
2021/05/30 11:04:22;;;;;;;6.35;1.65;;;;;;;23.18;33.17;98702.19;4974049;28;20068;-78
2021/05/30 11:07:08;;;;;;;3.63;1.27;;;;;;;22.92;31.55;98694.69;4991050;28;20046;-79
2021/05/30 11:09:55;;;;;;;2.58;1.23;;;;;;;23.97;30.14;98702.13;4971129;28;20042;-77
2021/05/30 11:12:24;;;;;;;4.68;1.45;;;;;;;24.16;28.42;98693.66;4986992;28;20109;-79
2021/05/30 11:15:06;;;;;;;2.47;1.20;;;;;;;25.77;28.73;98695.38;4954582;28;20081;-78
2021/05/30 11:17:38;;;;;;;1.98;1.20;;;;;;;24.44;28.92;98696.72;4988851;28;20077;-79
2021/05/30 11:20:11;;;;;;;2.58;1.20;;;;;;;26.18;28.09;98698.75;4984811;28;20417;-78
2021/05/30 11:22:45;;;;;;;2.30;1.15;;;;;;;25.66;27.16;98684.25;4991377;28;20050;-77
2021/05/30 11:25:24;;;;;;;3.53;1.27;;;;;;;24.80;27.38;98678.50;4974826;28;20074;-80
2021/05/30 11:27:58;;;;;;;2.85;1.40;;;;;;;23.97;29.13;98674.44;4983911;28;20051;-77
2021/05/30 11:30:35;;;;;;;4.10;1.38;;;;;;;24.31;28.84;98672.47;4987005;28;20050;-78
2021/05/30 11:33:02;;;;;;;3.20;1.77;;;;;;;25.03;28.45;98675.50;4972369;28;20533;-78
2021/05/30 11:35:29;;;;;;;2.33;1.00;;;;;;;24.66;26.09;98668.06;4977803;28;20069;-78
2021/05/30 11:37:59;;;;;;;3.05;1.42;;;;;;;25.31;26.83;98661.84;4992132;28;20378;-80
2021/05/30 11:40:26;;;;;;;1.52;0.98;;;;;;;25.32;27.64;98666.97;4991011;28;20041;-78